sensor_id;sensor_type;location;lat;lon;timestamp;P1;durP1;ratioP1;P2;durP2;ratioP2
23586;SDS011;11971;51.148;4.104;2023-04-03T00:00:00;69.70;;;35.67;;
23586;SDS011;11971;51.148;4.104;2023-04-03T00:02:28;69.63;;;35.33;;
23586;SDS011;11971;51.148;4.104;2023-04-03T00:04:54;70.32;;;36.13;;
23586;SDS011;11971;51.148;4.104;2023-04-03T00:07:21;69.88;;;34.47;;
23586;SDS011;11971;51.148;4.104;2023-04-03T00:09:48;67.72;;;34.85;;
23586;SDS011;11971;51.148;4.104;2023-04-03T00:12:16;72.57;;;35.60;;
23586;SDS011;11971;51.148;4.104;2023-04-03T00:14:43;68.15;;;35.35;;
23586;SDS011;11971;51.148;4.104;2023-04-03T00:17:09;69.15;;;35.90;;
23586;SDS011;11971;51.148;4.104;2023-04-03T00:19:36;68.75;;;34.63;;
23586;SDS011;11971;51.148;4.104;2023-04-03T00:22:03;67.70;;;34.58;;
23586;SDS011;11971;51.148;4.104;2023-04-03T00:24:29;71.25;;;35.30;;
23586;SDS011;11971;51.148;4.104;2023-04-03T00:26:56;70.63;;;34.80;;
23586;SDS011;11971;51.148;4.104;2023-04-03T00:29:24;67.07;;;34.47;;
23586;SDS011;11971;51.148;4.104;2023-04-03T00:31:51;66.80;;;34.55;;
23586;SDS011;11971;51.148;4.104;2023-04-03T00:34:17;71.05;;;34.63;;
23586;SDS011;11971;51.148;4.104;2023-04-03T00:36:44;66.20;;;34.97;;
23586;SDS011;11971;51.148;4.104;2023-04-03T00:39:11;66.88;;;34.30;;
23586;SDS011;11971;51.148;4.104;2023-04-03T00:41:38;66.88;;;34.80;;
23586;SDS011;11971;51.148;4.104;2023-04-03T00:44:18;64.70;;;33.78;;
23586;SDS011;11971;51.148;4.104;2023-04-03T00:46:50;68.57;;;34.97;;
23586;SDS011;11971;51.148;4.104;2023-04-03T00:49:17;66.43;;;33.97;;
23586;SDS011;11971;51.148;4.104;2023-04-03T00:51:44;65.68;;;33.83;;
23586;SDS011;11971;51.148;4.104;2023-04-03T00:54:11;65.45;;;34.08;;
23586;SDS011;11971;51.148;4.104;2023-04-03T00:56:38;65.70;;;33.70;;
23586;SDS011;11971;51.148;4.104;2023-04-03T00:59:06;64.95;;;33.42;;
23586;SDS011;11971;51.148;4.104;2023-04-03T01:01:34;63.22;;;33.58;;
23586;SDS011;11971;51.148;4.104;2023-04-03T01:04:03;61.65;;;33.47;;
23586;SDS011;11971;51.148;4.104;2023-04-03T01:06:32;62.05;;;33.22;;
23586;SDS011;11971;51.148;4.104;2023-04-03T01:09:00;65.88;;;32.80;;
23586;SDS011;11971;51.148;4.104;2023-04-03T01:11:27;66.15;;;33.58;;
23586;SDS011;11971;51.148;4.104;2023-04-03T01:13:54;68.28;;;33.83;;
23586;SDS011;11971;51.148;4.104;2023-04-03T01:16:21;71.35;;;34.40;;
23586;SDS011;11971;51.148;4.104;2023-04-03T01:18:48;66.25;;;34.20;;
23586;SDS011;11971;51.148;4.104;2023-04-03T01:21:24;62.85;;;33.60;;
23586;SDS011;11971;51.148;4.104;2023-04-03T01:24:01;61.95;;;33.63;;
23586;SDS011;11971;51.148;4.104;2023-04-03T01:26:36;66.82;;;34.22;;
23586;SDS011;11971;51.148;4.104;2023-04-03T01:29:02;66.60;;;34.30;;
23586;SDS011;11971;51.148;4.104;2023-04-03T01:31:31;65.28;;;34.38;;
23586;SDS011;11971;51.148;4.104;2023-04-03T01:34:05;67.72;;;34.35;;
23586;SDS011;11971;51.148;4.104;2023-04-03T01:36:32;65.90;;;34.60;;
23586;SDS011;11971;51.148;4.104;2023-04-03T01:38:59;73.43;;;34.67;;
23586;SDS011;11971;51.148;4.104;2023-04-03T01:41:26;63.88;;;33.58;;
23586;SDS011;11971;51.148;4.104;2023-04-03T01:43:53;66.07;;;33.40;;
23586;SDS011;11971;51.148;4.104;2023-04-03T01:46:20;62.95;;;33.22;;
23586;SDS011;11971;51.148;4.104;2023-04-03T01:48:48;63.67;;;34.20;;
23586;SDS011;11971;51.148;4.104;2023-04-03T01:51:15;63.20;;;33.45;;
23586;SDS011;11971;51.148;4.104;2023-04-03T01:53:42;66.28;;;33.53;;
23586;SDS011;11971;51.148;4.104;2023-04-03T01:56:08;65.57;;;33.90;;
23586;SDS011;11971;51.148;4.104;2023-04-03T01:58:35;65.70;;;33.83;;
23586;SDS011;11971;51.148;4.104;2023-04-03T02:01:02;66.45;;;34.55;;
23586;SDS011;11971;51.148;4.104;2023-04-03T02:03:29;67.00;;;34.22;;
23586;SDS011;11971;51.148;4.104;2023-04-03T02:05:57;70.35;;;34.83;;
23586;SDS011;11971;51.148;4.104;2023-04-03T02:08:24;66.20;;;34.75;;
23586;SDS011;11971;51.148;4.104;2023-04-03T02:10:51;68.35;;;35.03;;
23586;SDS011;11971;51.148;4.104;2023-04-03T02:13:17;69.30;;;35.78;;
23586;SDS011;11971;51.148;4.104;2023-04-03T02:15:44;69.15;;;35.30;;
23586;SDS011;11971;51.148;4.104;2023-04-03T02:18:11;67.85;;;35.10;;
23586;SDS011;11971;51.148;4.104;2023-04-03T02:20:38;67.28;;;35.30;;
23586;SDS011;11971;51.148;4.104;2023-04-03T02:23:06;67.60;;;35.10;;
23586;SDS011;11971;51.148;4.104;2023-04-03T02:25:33;64.05;;;34.40;;
23586;SDS011;11971;51.148;4.104;2023-04-03T02:28:00;64.55;;;34.20;;
23586;SDS011;11971;51.148;4.104;2023-04-03T02:30:27;71.80;;;35.25;;
23586;SDS011;11971;51.148;4.104;2023-04-03T02:32:54;71.57;;;34.97;;
23586;SDS011;11971;51.148;4.104;2023-04-03T02:35:20;63.70;;;34.22;;
23586;SDS011;11971;51.148;4.104;2023-04-03T02:37:47;64.20;;;34.50;;
23586;SDS011;11971;51.148;4.104;2023-04-03T02:40:15;63.60;;;34.30;;
23586;SDS011;11971;51.148;4.104;2023-04-03T02:42:42;64.35;;;34.00;;
23586;SDS011;11971;51.148;4.104;2023-04-03T02:45:10;69.22;;;35.00;;
23586;SDS011;11971;51.148;4.104;2023-04-03T02:47:37;66.50;;;34.53;;
23586;SDS011;11971;51.148;4.104;2023-04-03T02:50:04;63.28;;;34.10;;
23586;SDS011;11971;51.148;4.104;2023-04-03T02:52:32;65.30;;;34.03;;
23586;SDS011;11971;51.148;4.104;2023-04-03T02:54:59;64.80;;;33.78;;
23586;SDS011;11971;51.148;4.104;2023-04-03T02:57:27;66.53;;;34.80;;
23586;SDS011;11971;51.148;4.104;2023-04-03T02:59:54;67.43;;;34.42;;
23586;SDS011;11971;51.148;4.104;2023-04-03T03:02:20;68.03;;;35.03;;
23586;SDS011;11971;51.148;4.104;2023-04-03T03:04:47;66.30;;;34.20;;
23586;SDS011;11971;51.148;4.104;2023-04-03T03:07:14;64.88;;;35.08;;
23586;SDS011;11971;51.148;4.104;2023-04-03T03:09:40;66.47;;;35.30;;
23586;SDS011;11971;51.148;4.104;2023-04-03T03:12:07;67.88;;;35.08;;
23586;SDS011;11971;51.148;4.104;2023-04-03T03:14:35;64.30;;;34.67;;
23586;SDS011;11971;51.148;4.104;2023-04-03T03:17:02;67.18;;;34.95;;
23586;SDS011;11971;51.148;4.104;2023-04-03T03:19:28;64.53;;;34.33;;
23586;SDS011;11971;51.148;4.104;2023-04-03T03:21:55;68.43;;;34.60;;
23586;SDS011;11971;51.148;4.104;2023-04-03T03:24:22;66.18;;;34.78;;
23586;SDS011;11971;51.148;4.104;2023-04-03T03:26:49;63.15;;;33.97;;
23586;SDS011;11971;51.148;4.104;2023-04-03T03:29:15;64.20;;;34.42;;
23586;SDS011;11971;51.148;4.104;2023-04-03T03:31:44;63.92;;;34.60;;
23586;SDS011;11971;51.148;4.104;2023-04-03T03:34:11;64.72;;;34.33;;
23586;SDS011;11971;51.148;4.104;2023-04-03T03:36:38;64.85;;;33.97;;
23586;SDS011;11971;51.148;4.104;2023-04-03T03:39:04;71.75;;;34.10;;
23586;SDS011;11971;51.148;4.104;2023-04-03T03:41:31;65.78;;;33.63;;
23586;SDS011;11971;51.148;4.104;2023-04-03T03:43:58;61.92;;;33.78;;
23586;SDS011;11971;51.148;4.104;2023-04-03T03:46:24;65.13;;;34.72;;
23586;SDS011;11971;51.148;4.104;2023-04-03T03:48:52;63.67;;;34.40;;
23586;SDS011;11971;51.148;4.104;2023-04-03T03:51:21;64.15;;;34.00;;
23586;SDS011;11971;51.148;4.104;2023-04-03T03:53:48;66.47;;;34.33;;
23586;SDS011;11971;51.148;4.104;2023-04-03T03:56:14;64.43;;;33.90;;
23586;SDS011;11971;51.148;4.104;2023-04-03T03:58:41;64.28;;;33.83;;
23586;SDS011;11971;51.148;4.104;2023-04-03T04:01:08;66.38;;;34.33;;
23586;SDS011;11971;51.148;4.104;2023-04-03T04:03:37;70.95;;;34.90;;
23586;SDS011;11971;51.148;4.104;2023-04-03T04:06:05;73.50;;;34.90;;
23586;SDS011;11971;51.148;4.104;2023-04-03T04:08:32;63.95;;;34.10;;
23586;SDS011;11971;51.148;4.104;2023-04-03T04:10:58;66.88;;;33.72;;
23586;SDS011;11971;51.148;4.104;2023-04-03T04:13:25;64.10;;;33.58;;
23586;SDS011;11971;51.148;4.104;2023-04-03T04:15:52;66.25;;;33.83;;
23586;SDS011;11971;51.148;4.104;2023-04-03T04:18:18;66.85;;;34.42;;
23586;SDS011;11971;51.148;4.104;2023-04-03T04:23:15;61.53;;;33.17;;
23586;SDS011;11971;51.148;4.104;2023-04-03T04:25:43;63.15;;;34.22;;
23586;SDS011;11971;51.148;4.104;2023-04-03T04:28:10;64.40;;;33.75;;
23586;SDS011;11971;51.148;4.104;2023-04-03T04:30:37;62.65;;;33.92;;
23586;SDS011;11971;51.148;4.104;2023-04-03T04:33:03;63.03;;;34.10;;
23586;SDS011;11971;51.148;4.104;2023-04-03T04:35:30;64.82;;;34.78;;
23586;SDS011;11971;51.148;4.104;2023-04-03T04:37:57;68.18;;;34.63;;
23586;SDS011;11971;51.148;4.104;2023-04-03T04:40:25;69.70;;;35.05;;
23586;SDS011;11971;51.148;4.104;2023-04-03T04:42:51;65.55;;;34.90;;
23586;SDS011;11971;51.148;4.104;2023-04-03T04:45:18;64.40;;;34.17;;
23586;SDS011;11971;51.148;4.104;2023-04-03T04:47:45;78.57;;;35.28;;
23586;SDS011;11971;51.148;4.104;2023-04-03T04:50:12;64.97;;;34.38;;
23586;SDS011;11971;51.148;4.104;2023-04-03T04:52:38;65.93;;;34.85;;
23586;SDS011;11971;51.148;4.104;2023-04-03T04:55:06;67.07;;;35.15;;
23586;SDS011;11971;51.148;4.104;2023-04-03T04:57:35;69.00;;;34.83;;
23586;SDS011;11971;51.148;4.104;2023-04-03T05:00:04;66.78;;;34.92;;
23586;SDS011;11971;51.148;4.104;2023-04-03T05:02:31;70.68;;;34.28;;
23586;SDS011;11971;51.148;4.104;2023-04-03T05:04:58;67.65;;;34.38;;
23586;SDS011;11971;51.148;4.104;2023-04-03T05:07:25;68.65;;;35.40;;
23586;SDS011;11971;51.148;4.104;2023-04-03T05:09:51;67.82;;;34.47;;
23586;SDS011;11971;51.148;4.104;2023-04-03T05:12:18;65.47;;;33.75;;
23586;SDS011;11971;51.148;4.104;2023-04-03T05:14:46;65.05;;;34.13;;
23586;SDS011;11971;51.148;4.104;2023-04-03T05:17:13;66.85;;;34.20;;
23586;SDS011;11971;51.148;4.104;2023-04-03T05:19:40;72.18;;;34.90;;
23586;SDS011;11971;51.148;4.104;2023-04-03T05:22:07;63.35;;;34.35;;
23586;SDS011;11971;51.148;4.104;2023-04-03T05:24:33;64.78;;;34.35;;
23586;SDS011;11971;51.148;4.104;2023-04-03T05:27:00;67.45;;;35.08;;
23586;SDS011;11971;51.148;4.104;2023-04-03T05:29:27;65.32;;;34.75;;
23586;SDS011;11971;51.148;4.104;2023-04-03T05:31:55;67.63;;;34.38;;
23586;SDS011;11971;51.148;4.104;2023-04-03T05:34:22;65.47;;;34.35;;
23586;SDS011;11971;51.148;4.104;2023-04-03T05:36:48;65.55;;;34.42;;
23586;SDS011;11971;51.148;4.104;2023-04-03T05:39:15;66.18;;;34.00;;
23586;SDS011;11971;51.148;4.104;2023-04-03T05:41:42;66.65;;;34.95;;
23586;SDS011;11971;51.148;4.104;2023-04-03T05:44:08;66.03;;;34.53;;
23586;SDS011;11971;51.148;4.104;2023-04-03T05:46:35;62.60;;;33.53;;
23586;SDS011;11971;51.148;4.104;2023-04-03T05:49:03;64.35;;;34.17;;
23586;SDS011;11971;51.148;4.104;2023-04-03T05:51:31;67.53;;;34.72;;
23586;SDS011;11971;51.148;4.104;2023-04-03T05:54:00;66.45;;;34.80;;
23586;SDS011;11971;51.148;4.104;2023-04-03T05:56:31;69.43;;;34.90;;
23586;SDS011;11971;51.148;4.104;2023-04-03T05:58:58;64.07;;;33.80;;
23586;SDS011;11971;51.148;4.104;2023-04-03T06:01:24;68.40;;;34.55;;
23586;SDS011;11971;51.148;4.104;2023-04-03T06:03:51;67.82;;;35.28;;
23586;SDS011;11971;51.148;4.104;2023-04-03T06:06:19;68.03;;;35.50;;
23586;SDS011;11971;51.148;4.104;2023-04-03T06:08:47;67.03;;;35.13;;
23586;SDS011;11971;51.148;4.104;2023-04-03T06:11:13;72.40;;;35.33;;
23586;SDS011;11971;51.148;4.104;2023-04-03T06:13:40;70.82;;;34.90;;
23586;SDS011;11971;51.148;4.104;2023-04-03T06:16:07;63.97;;;34.42;;
23586;SDS011;11971;51.148;4.104;2023-04-03T06:18:34;67.05;;;34.47;;
23586;SDS011;11971;51.148;4.104;2023-04-03T06:21:01;66.70;;;34.47;;
23586;SDS011;11971;51.148;4.104;2023-04-03T06:23:29;65.60;;;34.25;;
23586;SDS011;11971;51.148;4.104;2023-04-03T06:25:57;65.50;;;34.83;;
23586;SDS011;11971;51.148;4.104;2023-04-03T06:28:24;63.50;;;33.83;;
23586;SDS011;11971;51.148;4.104;2023-04-03T06:30:51;68.88;;;34.67;;
23586;SDS011;11971;51.148;4.104;2023-04-03T06:33:18;68.57;;;35.38;;
23586;SDS011;11971;51.148;4.104;2023-04-03T06:35:44;67.45;;;35.13;;
23586;SDS011;11971;51.148;4.104;2023-04-03T06:38:12;70.95;;;36.00;;
23586;SDS011;11971;51.148;4.104;2023-04-03T06:40:40;70.70;;;36.35;;
23586;SDS011;11971;51.148;4.104;2023-04-03T06:43:06;76.32;;;37.05;;
23586;SDS011;11971;51.148;4.104;2023-04-03T06:45:33;74.00;;;37.15;;
23586;SDS011;11971;51.148;4.104;2023-04-03T06:48:01;73.75;;;36.22;;
23586;SDS011;11971;51.148;4.104;2023-04-03T06:50:27;74.95;;;37.13;;
23586;SDS011;11971;51.148;4.104;2023-04-03T06:52:54;74.47;;;38.22;;
23586;SDS011;11971;51.148;4.104;2023-04-03T06:55:21;83.20;;;38.17;;
23586;SDS011;11971;51.148;4.104;2023-04-03T06:57:49;81.85;;;38.92;;
23586;SDS011;11971;51.148;4.104;2023-04-03T07:00:16;92.70;;;40.75;;
23586;SDS011;11971;51.148;4.104;2023-04-03T07:02:44;77.35;;;40.03;;
23586;SDS011;11971;51.148;4.104;2023-04-03T07:05:11;77.88;;;40.42;;
23586;SDS011;11971;51.148;4.104;2023-04-03T07:07:38;79.15;;;39.85;;
23586;SDS011;11971;51.148;4.104;2023-04-03T07:10:06;80.10;;;39.95;;
23586;SDS011;11971;51.148;4.104;2023-04-03T07:12:34;93.97;;;45.60;;
23586;SDS011;11971;51.148;4.104;2023-04-03T07:15:03;104.32;;;49.88;;
23586;SDS011;11971;51.148;4.104;2023-04-03T07:19:57;87.97;;;42.42;;
23586;SDS011;11971;51.148;4.104;2023-04-03T07:22:24;85.22;;;41.22;;
23586;SDS011;11971;51.148;4.104;2023-04-03T07:24:50;93.82;;;43.03;;
23586;SDS011;11971;51.148;4.104;2023-04-03T07:27:17;83.22;;;42.50;;
23586;SDS011;11971;51.148;4.104;2023-04-03T07:29:43;83.13;;;42.55;;
23586;SDS011;11971;51.148;4.104;2023-04-03T07:32:12;88.53;;;41.60;;
23586;SDS011;11971;51.148;4.104;2023-04-03T07:34:39;78.27;;;39.40;;
23586;SDS011;11971;51.148;4.104;2023-04-03T07:37:05;83.97;;;39.45;;
23586;SDS011;11971;51.148;4.104;2023-04-03T07:39:34;81.13;;;38.53;;
23586;SDS011;11971;51.148;4.104;2023-04-03T07:42:03;83.85;;;39.88;;
23586;SDS011;11971;51.148;4.104;2023-04-03T07:44:30;82.80;;;39.00;;
23586;SDS011;11971;51.148;4.104;2023-04-03T07:46:57;78.00;;;37.80;;
23586;SDS011;11971;51.148;4.104;2023-04-03T07:49:26;74.38;;;37.53;;
23586;SDS011;11971;51.148;4.104;2023-04-03T07:51:53;71.28;;;35.47;;
23586;SDS011;11971;51.148;4.104;2023-04-03T07:54:20;74.47;;;35.13;;
23586;SDS011;11971;51.148;4.104;2023-04-03T07:56:46;77.13;;;36.40;;
23586;SDS011;11971;51.148;4.104;2023-04-03T07:59:13;78.72;;;37.15;;
23586;SDS011;11971;51.148;4.104;2023-04-03T08:01:40;85.32;;;36.53;;
23586;SDS011;11971;51.148;4.104;2023-04-03T08:04:06;72.75;;;36.00;;
23586;SDS011;11971;51.148;4.104;2023-04-03T08:06:34;75.38;;;36.72;;
23586;SDS011;11971;51.148;4.104;2023-04-03T08:09:02;78.73;;;37.13;;
23586;SDS011;11971;51.148;4.104;2023-04-03T08:11:30;91.07;;;36.00;;
23586;SDS011;11971;51.148;4.104;2023-04-03T08:13:57;77.25;;;36.47;;
23586;SDS011;11971;51.148;4.104;2023-04-03T08:16:23;78.47;;;35.92;;
23586;SDS011;11971;51.148;4.104;2023-04-03T08:18:51;75.50;;;36.05;;
23586;SDS011;11971;51.148;4.104;2023-04-03T08:21:18;72.38;;;35.55;;
23586;SDS011;11971;51.148;4.104;2023-04-03T08:23:47;79.32;;;35.97;;
23586;SDS011;11971;51.148;4.104;2023-04-03T08:26:15;78.38;;;35.45;;
23586;SDS011;11971;51.148;4.104;2023-04-03T08:28:42;75.83;;;36.40;;
23586;SDS011;11971;51.148;4.104;2023-04-03T08:31:10;79.00;;;35.20;;
23586;SDS011;11971;51.148;4.104;2023-04-03T08:36:06;75.07;;;35.47;;
23586;SDS011;11971;51.148;4.104;2023-04-03T08:38:34;72.88;;;34.90;;
23586;SDS011;11971;51.148;4.104;2023-04-03T08:41:07;75.25;;;35.42;;
23586;SDS011;11971;51.148;4.104;2023-04-03T08:43:40;74.93;;;35.50;;
23586;SDS011;11971;51.148;4.104;2023-04-03T08:46:19;76.18;;;35.10;;
23586;SDS011;11971;51.148;4.104;2023-04-03T08:48:49;76.07;;;36.08;;
23586;SDS011;11971;51.148;4.104;2023-04-03T08:51:18;72.60;;;34.95;;
23586;SDS011;11971;51.148;4.104;2023-04-03T08:53:49;74.95;;;35.15;;
23586;SDS011;11971;51.148;4.104;2023-04-03T08:56:24;76.38;;;35.00;;
23586;SDS011;11971;51.148;4.104;2023-04-03T08:58:52;74.53;;;35.10;;
23586;SDS011;11971;51.148;4.104;2023-04-03T09:01:23;75.75;;;34.88;;
23586;SDS011;11971;51.148;4.104;2023-04-03T09:03:55;74.47;;;34.17;;
23586;SDS011;11971;51.148;4.104;2023-04-03T09:06:22;73.07;;;34.78;;
23586;SDS011;11971;51.148;4.104;2023-04-03T09:08:51;72.35;;;34.28;;
23586;SDS011;11971;51.148;4.104;2023-04-03T09:11:32;72.68;;;34.22;;
23586;SDS011;11971;51.148;4.104;2023-04-03T09:14:19;73.63;;;34.42;;
23586;SDS011;11971;51.148;4.104;2023-04-03T09:16:59;73.20;;;34.45;;
23586;SDS011;11971;51.148;4.104;2023-04-03T09:19:30;72.75;;;34.05;;
23586;SDS011;11971;51.148;4.104;2023-04-03T09:22:02;73.30;;;33.47;;
23586;SDS011;11971;51.148;4.104;2023-04-03T09:24:35;72.07;;;33.95;;
23586;SDS011;11971;51.148;4.104;2023-04-03T09:27:05;71.95;;;33.65;;
23586;SDS011;11971;51.148;4.104;2023-04-03T09:29:36;75.60;;;33.83;;
23586;SDS011;11971;51.148;4.104;2023-04-03T09:32:12;71.72;;;33.50;;
23586;SDS011;11971;51.148;4.104;2023-04-03T09:34:46;71.93;;;33.47;;
23586;SDS011;11971;51.148;4.104;2023-04-03T09:37:32;71.50;;;33.58;;
23586;SDS011;11971;51.148;4.104;2023-04-03T09:40:01;72.93;;;33.50;;
23586;SDS011;11971;51.148;4.104;2023-04-03T09:42:30;71.07;;;33.38;;
23586;SDS011;11971;51.148;4.104;2023-04-03T09:44:58;72.57;;;33.22;;
23586;SDS011;11971;51.148;4.104;2023-04-03T09:47:26;71.18;;;32.95;;
23586;SDS011;11971;51.148;4.104;2023-04-03T09:50:08;71.93;;;33.53;;
23586;SDS011;11971;51.148;4.104;2023-04-03T09:52:45;77.60;;;33.65;;
23586;SDS011;11971;51.148;4.104;2023-04-03T09:55:13;74.10;;;33.83;;
23586;SDS011;11971;51.148;4.104;2023-04-03T09:57:43;79.03;;;33.45;;
23586;SDS011;11971;51.148;4.104;2023-04-03T10:00:19;72.90;;;32.78;;
23586;SDS011;11971;51.148;4.104;2023-04-03T10:02:49;73.18;;;33.30;;
23586;SDS011;11971;51.148;4.104;2023-04-03T10:05:28;73.05;;;33.13;;
23586;SDS011;11971;51.148;4.104;2023-04-03T10:08:08;74.22;;;33.92;;
23586;SDS011;11971;51.148;4.104;2023-04-03T10:10:37;72.68;;;33.90;;
23586;SDS011;11971;51.148;4.104;2023-04-03T10:13:06;75.00;;;33.97;;
23586;SDS011;11971;51.148;4.104;2023-04-03T10:15:35;75.57;;;33.65;;
23586;SDS011;11971;51.148;4.104;2023-04-03T10:18:05;71.07;;;33.25;;
23586;SDS011;11971;51.148;4.104;2023-04-03T10:20:47;72.53;;;33.38;;
23586;SDS011;11971;51.148;4.104;2023-04-03T10:23:17;76.55;;;33.75;;
23586;SDS011;11971;51.148;4.104;2023-04-03T10:25:48;73.93;;;33.95;;
23586;SDS011;11971;51.148;4.104;2023-04-03T10:28:22;77.20;;;33.13;;
23586;SDS011;11971;51.148;4.104;2023-04-03T10:30:52;73.25;;;33.05;;
23586;SDS011;11971;51.148;4.104;2023-04-03T10:36:24;73.07;;;33.30;;
23586;SDS011;11971;51.148;4.104;2023-04-03T10:38:57;76.22;;;33.25;;
23586;SDS011;11971;51.148;4.104;2023-04-03T10:41:31;78.10;;;33.38;;
23586;SDS011;11971;51.148;4.104;2023-04-03T10:44:08;75.18;;;34.17;;
23586;SDS011;11971;51.148;4.104;2023-04-03T10:46:45;77.68;;;34.00;;
23586;SDS011;11971;51.148;4.104;2023-04-03T10:49:17;74.15;;;33.38;;
23586;SDS011;11971;51.148;4.104;2023-04-03T10:51:54;78.68;;;33.88;;
23586;SDS011;11971;51.148;4.104;2023-04-03T10:54:29;74.05;;;33.65;;
23586;SDS011;11971;51.148;4.104;2023-04-03T10:57:00;73.38;;;33.63;;
23586;SDS011;11971;51.148;4.104;2023-04-03T10:59:30;82.63;;;36.22;;
23586;SDS011;11971;51.148;4.104;2023-04-03T11:01:59;76.97;;;33.85;;
23586;SDS011;11971;51.148;4.104;2023-04-03T11:04:29;76.50;;;34.15;;
23586;SDS011;11971;51.148;4.104;2023-04-03T11:06:59;77.10;;;33.55;;
23586;SDS011;11971;51.148;4.104;2023-04-03T11:09:28;75.60;;;34.03;;
23586;SDS011;11971;51.148;4.104;2023-04-03T11:14:27;73.47;;;33.80;;
23586;SDS011;11971;51.148;4.104;2023-04-03T11:19:41;77.22;;;34.33;;
23586;SDS011;11971;51.148;4.104;2023-04-03T11:22:13;80.28;;;34.28;;
23586;SDS011;11971;51.148;4.104;2023-04-03T11:24:43;75.88;;;34.13;;
23586;SDS011;11971;51.148;4.104;2023-04-03T11:27:15;75.97;;;34.05;;
23586;SDS011;11971;51.148;4.104;2023-04-03T11:29:43;80.55;;;34.28;;
23586;SDS011;11971;51.148;4.104;2023-04-03T11:32:23;74.53;;;33.88;;
23586;SDS011;11971;51.148;4.104;2023-04-03T11:34:57;75.75;;;34.00;;
23586;SDS011;11971;51.148;4.104;2023-04-03T11:37:26;75.18;;;33.95;;
23586;SDS011;11971;51.148;4.104;2023-04-03T11:39:58;75.15;;;33.78;;
23586;SDS011;11971;51.148;4.104;2023-04-03T11:42:29;88.30;;;34.13;;
23586;SDS011;11971;51.148;4.104;2023-04-03T11:45:16;77.47;;;34.08;;
23586;SDS011;11971;51.148;4.104;2023-04-03T11:47:45;74.78;;;33.85;;
23586;SDS011;11971;51.148;4.104;2023-04-03T11:55:56;76.65;;;34.47;;
23586;SDS011;11971;51.148;4.104;2023-04-03T11:58:25;75.13;;;33.72;;
23586;SDS011;11971;51.148;4.104;2023-04-03T12:00:57;83.25;;;34.30;;
23586;SDS011;11971;51.148;4.104;2023-04-03T12:09:27;76.55;;;33.80;;
23586;SDS011;11971;51.148;4.104;2023-04-03T12:11:56;76.15;;;34.30;;
23586;SDS011;11971;51.148;4.104;2023-04-03T12:14:23;74.85;;;33.50;;
23586;SDS011;11971;51.148;4.104;2023-04-03T12:16:52;76.18;;;33.97;;
23586;SDS011;11971;51.148;4.104;2023-04-03T12:19:33;75.82;;;34.33;;
23586;SDS011;11971;51.148;4.104;2023-04-03T12:22:06;79.68;;;34.40;;
23586;SDS011;11971;51.148;4.104;2023-04-03T12:24:35;77.47;;;34.13;;
23586;SDS011;11971;51.148;4.104;2023-04-03T12:29:51;74.88;;;33.40;;
23586;SDS011;11971;51.148;4.104;2023-04-03T12:32:24;84.38;;;34.22;;
23586;SDS011;11971;51.148;4.104;2023-04-03T12:35:05;74.97;;;34.00;;
23586;SDS011;11971;51.148;4.104;2023-04-03T12:42:42;88.15;;;34.45;;
23586;SDS011;11971;51.148;4.104;2023-04-03T12:45:39;76.13;;;34.63;;
23586;SDS011;11971;51.148;4.104;2023-04-03T12:48:08;77.82;;;35.33;;
23586;SDS011;11971;51.148;4.104;2023-04-03T12:50:42;79.15;;;35.25;;
23586;SDS011;11971;51.148;4.104;2023-04-03T12:53:11;78.55;;;34.97;;
23586;SDS011;11971;51.148;4.104;2023-04-03T12:55:40;77.95;;;33.95;;
23586;SDS011;11971;51.148;4.104;2023-04-03T12:58:13;77.35;;;35.67;;
23586;SDS011;11971;51.148;4.104;2023-04-03T13:00:41;77.28;;;35.20;;
23586;SDS011;11971;51.148;4.104;2023-04-03T13:03:18;76.47;;;35.25;;
23586;SDS011;11971;51.148;4.104;2023-04-03T13:05:50;78.53;;;35.92;;
23586;SDS011;11971;51.148;4.104;2023-04-03T13:08:17;78.43;;;33.97;;
23586;SDS011;11971;51.148;4.104;2023-04-03T13:10:55;84.03;;;34.38;;
23586;SDS011;11971;51.148;4.104;2023-04-03T13:13:23;76.88;;;34.08;;
23586;SDS011;11971;51.148;4.104;2023-04-03T13:15:51;77.82;;;35.92;;
23586;SDS011;11971;51.148;4.104;2023-04-03T13:18:23;79.43;;;35.97;;
23586;SDS011;11971;51.148;4.104;2023-04-03T13:20:53;78.78;;;34.17;;
23586;SDS011;11971;51.148;4.104;2023-04-03T13:23:21;75.95;;;34.17;;
23586;SDS011;11971;51.148;4.104;2023-04-03T13:25:48;75.20;;;33.85;;
23586;SDS011;11971;51.148;4.104;2023-04-03T13:28:17;77.80;;;34.17;;
23586;SDS011;11971;51.148;4.104;2023-04-03T13:30:54;80.50;;;34.03;;
23586;SDS011;11971;51.148;4.104;2023-04-03T13:33:23;76.43;;;34.13;;
23586;SDS011;11971;51.148;4.104;2023-04-03T13:35:55;75.72;;;33.83;;
23586;SDS011;11971;51.148;4.104;2023-04-03T13:38:24;75.75;;;34.08;;
23586;SDS011;11971;51.148;4.104;2023-04-03T13:40:53;76.43;;;34.30;;
23586;SDS011;11971;51.148;4.104;2023-04-03T13:43:22;78.07;;;34.53;;
23586;SDS011;11971;51.148;4.104;2023-04-03T13:45:58;77.00;;;34.45;;
23586;SDS011;11971;51.148;4.104;2023-04-03T13:48:34;75.60;;;33.95;;
23586;SDS011;11971;51.148;4.104;2023-04-03T13:51:12;78.43;;;34.58;;
23586;SDS011;11971;51.148;4.104;2023-04-03T13:53:44;84.50;;;34.22;;
23586;SDS011;11971;51.148;4.104;2023-04-03T13:56:16;77.97;;;34.35;;
23586;SDS011;11971;51.148;4.104;2023-04-03T13:58:57;77.28;;;34.28;;
23586;SDS011;11971;51.148;4.104;2023-04-03T14:01:42;77.38;;;34.55;;
23586;SDS011;11971;51.148;4.104;2023-04-03T14:06:40;76.45;;;34.13;;
23586;SDS011;11971;51.148;4.104;2023-04-03T14:09:06;77.45;;;34.53;;
23586;SDS011;11971;51.148;4.104;2023-04-03T14:11:33;78.53;;;34.30;;
23586;SDS011;11971;51.148;4.104;2023-04-03T14:14:01;78.55;;;34.35;;
23586;SDS011;11971;51.148;4.104;2023-04-03T14:16:31;78.07;;;34.63;;
23586;SDS011;11971;51.148;4.104;2023-04-03T14:18:59;79.03;;;34.58;;
23586;SDS011;11971;51.148;4.104;2023-04-03T14:21:25;77.13;;;34.33;;
23586;SDS011;11971;51.148;4.104;2023-04-03T14:23:54;79.70;;;34.85;;
23586;SDS011;11971;51.148;4.104;2023-04-03T14:26:21;78.45;;;34.88;;
23586;SDS011;11971;51.148;4.104;2023-04-03T14:28:50;77.13;;;34.55;;
23586;SDS011;11971;51.148;4.104;2023-04-03T14:31:17;78.22;;;34.55;;
23586;SDS011;11971;51.148;4.104;2023-04-03T14:33:45;99.22;;;35.05;;
23586;SDS011;11971;51.148;4.104;2023-04-03T14:36:14;79.05;;;34.47;;
23586;SDS011;11971;51.148;4.104;2023-04-03T14:38:43;77.55;;;34.47;;
23586;SDS011;11971;51.148;4.104;2023-04-03T14:41:12;79.70;;;35.03;;
23586;SDS011;11971;51.148;4.104;2023-04-03T14:43:39;77.05;;;34.35;;
23586;SDS011;11971;51.148;4.104;2023-04-03T14:46:09;78.45;;;34.63;;
23586;SDS011;11971;51.148;4.104;2023-04-03T14:48:39;77.88;;;34.33;;
23586;SDS011;11971;51.148;4.104;2023-04-03T14:51:06;81.60;;;34.78;;
23586;SDS011;11971;51.148;4.104;2023-04-03T14:53:33;78.97;;;34.42;;
23586;SDS011;11971;51.148;4.104;2023-04-03T14:56:01;79.57;;;34.75;;
23586;SDS011;11971;51.148;4.104;2023-04-03T14:58:30;82.18;;;34.75;;
23586;SDS011;11971;51.148;4.104;2023-04-03T15:00:57;79.28;;;34.63;;
23586;SDS011;11971;51.148;4.104;2023-04-03T15:03:23;78.75;;;34.65;;
23586;SDS011;11971;51.148;4.104;2023-04-03T15:05:50;78.13;;;34.78;;
23586;SDS011;11971;51.148;4.104;2023-04-03T15:08:18;77.63;;;34.40;;